Time;durP1;ratioP1;P1;durP2;ratioP2;P2;SDS_P1;SDS_P2;PMS_P1;PMS_P2;Temp;Humidity;BMP_temperature;BMP_pressure;BME280_temperature;BME280_humidity;BME280_pressure;Samples;Min_cycle;Max_cycle;Signal;HPM_P1;HPM_P2
2022/10/18 00:04:07;;;;;;;8.80;5.50;;;;;;;13.40;68.06;100765.62;216164;1274;140307;-71
2022/10/18 00:09:12;;;;;;;10.00;5.70;;;;;;;13.33;68.17;100761.14;216109;1273;140512;-71
2022/10/18 00:14:16;;;;;;;8.00;5.90;;;;;;;13.23;68.43;100757.60;215971;1274;140477;-72
2022/10/18 00:19:19;;;;;;;8.70;7.10;;;;;;;13.16;68.59;100748.63;216084;1274;140544;-71
2022/10/18 00:24:28;;;;;;;15.20;6.60;;;;;;;13.13;68.82;100745.98;216208;1274;141426;-71
2022/10/18 00:29:32;;;;;;;5.80;4.90;;;;;;;13.14;68.97;100744.11;216110;1274;140975;-71
2022/10/18 00:34:39;;;;;;;10.40;6.60;;;;;;;13.10;69.00;100739.73;215964;1274;139755;-71
2022/10/18 00:39:44;;;;;;;5.90;5.10;;;;;;;13.10;69.05;100736.52;216080;1273;140631;-71
2022/10/18 00:44:49;;;;;;;6.70;5.90;;;;;;;13.17;69.23;100737.17;216046;1274;141934;-71
2022/10/18 00:49:56;;;;;;;6.00;4.20;;;;;;;13.22;69.29;100731.21;216154;1274;141815;-71
2022/10/18 00:55:02;;;;;;;5.60;5.10;;;;;;;13.18;69.40;100728.88;214983;1274;140768;-70
2022/10/18 01:00:08;;;;;;;13.10;6.10;;;;;;;13.11;69.50;100725.63;214949;1274;142030;-71
2022/10/18 01:05:16;;;;;;;6.00;5.20;;;;;;;13.09;69.52;100726.23;216084;1273;141947;-71
2022/10/18 01:10:45;;;;;;;5.80;5.20;;;;;;;13.13;69.78;100723.54;215901;1274;140825;-72
2022/10/18 01:16:18;;;;;;;8.50;5.60;;;;;;;13.18;69.65;100726.13;215864;1274;141643;-71
2022/10/18 01:21:49;;;;;;;10.00;5.70;;;;;;;13.21;69.54;100727.23;215882;1273;142596;-72
2022/10/18 01:27:24;;;;;;;8.50;6.00;;;;;;;13.18;69.38;100719.48;216071;1274;142294;-71
2022/10/18 01:32:37;;;;;;;6.80;5.50;;;;;;;13.16;69.34;100711.89;215066;1274;141734;-71
2022/10/18 01:37:45;;;;;;;5.00;4.60;;;;;;;13.11;69.39;100709.61;214774;1273;140806;-72
2022/10/18 01:42:53;;;;;;;5.80;5.10;;;;;;;13.03;69.67;100710.16;216140;1274;141600;-72
2022/10/18 01:48:02;;;;;;;5.60;4.70;;;;;;;13.02;69.76;100705.20;216150;1274;144721;-72
2022/10/18 01:53:24;;;;;;;6.80;5.80;;;;;;;13.03;69.46;100702.70;215615;1274;141031;-71
2022/10/18 01:58:47;;;;;;;10.00;7.20;;;;;;;13.05;69.66;100699.02;215828;1277;142889;-72
2022/10/18 02:03:56;;;;;;;8.10;6.90;;;;;;;13.03;69.63;100696.94;216096;1274;140862;-73
2022/10/18 02:09:26;;;;;;;9.30;6.70;;;;;;;13.02;69.67;100698.77;215911;1274;140097;-70
2022/10/18 02:14:31;;;;;;;6.40;4.80;;;;;;;13.00;69.50;100696.57;215932;1274;141451;-71
2022/10/18 02:19:43;;;;;;;8.50;7.00;;;;;;;12.91;69.34;100692.73;215911;1274;141749;-72
2022/10/18 02:24:54;;;;;;;6.90;6.20;;;;;;;12.81;69.62;100694.89;215900;1274;140595;-71
2022/10/18 02:29:59;;;;;;;5.70;5.00;;;;;;;12.78;69.74;100698.02;216112;1274;140650;-72
2022/10/18 02:35:19;;;;;;;14.90;6.90;;;;;;;12.77;70.16;100695.61;215909;1274;140966;-72
2022/10/18 02:40:24;;;;;;;10.90;5.70;;;;;;;12.77;69.73;100695.58;215682;1274;160930;-71
2022/10/18 02:45:28;;;;;;;8.60;6.10;;;;;;;12.77;69.97;100704.09;215840;1274;140620;-68
2022/10/18 02:50:31;;;;;;;8.90;5.60;;;;;;;12.80;70.20;100707.60;216127;1272;140946;-72
2022/10/18 02:55:38;;;;;;;6.40;5.80;;;;;;;12.83;70.03;100715.04;215656;1276;141957;-71
2022/10/18 03:00:43;;;;;;;8.30;5.20;;;;;;;12.78;69.55;100710.63;215876;1277;140882;-72
2022/10/18 03:05:51;;;;;;;7.30;5.40;;;;;;;12.69;69.90;100711.02;215689;1274;140817;-72
2022/10/18 03:10:56;;;;;;;8.40;5.50;;;;;;;12.63;69.97;100712.27;215930;1273;140451;-71
2022/10/18 03:16:01;;;;;;;7.10;5.70;;;;;;;12.54;69.96;100709.14;215423;1273;140381;-71
2022/10/18 03:21:06;;;;;;;6.30;5.50;;;;;;;12.37;70.06;100707.27;215511;1274;140874;-71
2022/10/18 03:26:11;;;;;;;6.50;4.70;;;;;;;12.30;70.26;100708.38;215817;1274;140194;-70
2022/10/18 03:31:16;;;;;;;8.20;5.80;;;;;;;12.28;70.57;100706.62;216064;1274;140571;-71
2022/10/18 03:36:19;;;;;;;8.60;6.20;;;;;;;12.29;70.57;100702.86;215028;1274;141627;-71
2022/10/18 03:41:23;;;;;;;8.60;6.20;;;;;;;12.32;70.79;100707.45;215005;1274;140647;-71
2022/10/18 03:46:27;;;;;;;7.70;6.40;;;;;;;12.34;70.70;100704.96;215957;1274;140988;-71
2022/10/18 03:51:31;;;;;;;13.00;7.30;;;;;;;12.29;70.74;100706.29;215338;1274;139684;-70
2022/10/18 03:56:36;;;;;;;9.10;6.60;;;;;;;12.20;70.47;100714.95;214930;1274;140890;-71
2022/10/18 04:01:41;;;;;;;14.50;8.10;;;;;;;12.06;70.57;100713.60;216006;1274;140840;-71
2022/10/18 04:06:46;;;;;;;8.70;7.10;;;;;;;11.98;70.73;100710.84;214291;1274;140607;-72
2022/10/18 04:11:50;;;;;;;6.90;6.10;;;;;;;11.81;70.35;100713.21;215986;1273;139644;-72
2022/10/18 04:16:54;;;;;;;13.90;8.10;;;;;;;11.54;70.32;100709.62;215337;1274;141450;-73
2022/10/18 04:21:58;;;;;;;15.70;7.80;;;;;;;11.27;70.41;100703.21;215759;1272;140976;-76
2022/10/18 04:27:04;;;;;;;10.70;7.90;;;;;;;11.05;70.82;100705.39;214391;1274;141284;-75
2022/10/18 04:32:09;;;;;;;8.60;6.20;;;;;;;10.94;71.20;100697.34;215764;1273;142147;-71
2022/10/18 04:37:13;;;;;;;8.30;7.40;;;;;;;10.76;71.10;100702.51;216147;1274;141400;-70
2022/10/18 04:42:17;;;;;;;8.10;6.90;;;;;;;10.64;71.70;100708.94;216024;1274;140404;-73
2022/10/18 04:47:21;;;;;;;8.20;7.00;;;;;;;10.63;71.95;100707.98;216065;1273;139801;-72
2022/10/18 04:52:26;;;;;;;9.70;6.60;;;;;;;10.66;72.01;100705.69;215979;1272;141270;-72
2022/10/18 04:57:30;;;;;;;8.90;8.00;;;;;;;10.68;72.26;100712.81;216052;1274;141187;-75
2022/10/18 05:02:35;;;;;;;13.50;7.10;;;;;;;10.74;72.50;100709.32;215784;1274;140380;-72
2022/10/18 05:07:39;;;;;;;8.20;6.80;;;;;;;10.69;72.21;100706.44;216005;1274;141065;-74
2022/10/18 05:12:44;;;;;;;12.60;7.20;;;;;;;10.63;72.28;100708.77;216127;1274;140333;-74
2022/10/18 05:17:48;;;;;;;10.70;7.10;;;;;;;10.52;72.23;100706.17;215026;1274;140471;-74
2022/10/18 05:22:51;;;;;;;8.60;5.70;;;;;;;10.46;72.48;100708.56;215769;1273;140518;-73
2022/10/18 05:27:55;;;;;;;9.60;6.50;;;;;;;10.38;72.52;100704.38;215849;1274;140180;-73
2022/10/18 05:33:00;;;;;;;11.40;8.50;;;;;;;10.33;72.98;100707.93;215912;1273;141305;-73
2022/10/18 05:38:05;;;;;;;8.50;5.90;;;;;;;10.42;73.37;100705.52;215678;1274;141254;-72
2022/10/18 05:43:09;;;;;;;17.00;6.30;;;;;;;10.50;73.26;100701.72;215946;1274;140725;-72
2022/10/18 05:48:16;;;;;;;13.10;8.40;;;;;;;10.57;73.37;100699.23;213611;1273;976260;-74
2022/10/18 05:53:20;;;;;;;10.00;8.20;;;;;;;10.68;73.73;100708.09;215906;1274;141416;-74
2022/10/18 05:58:40;;;;;;;21.30;11.00;;;;;;;10.77;73.77;100711.16;215775;1274;142157;-75
2022/10/18 06:03:44;;;;;;;13.30;8.20;;;;;;;10.90;74.16;100713.65;215825;1274;141215;-73
2022/10/18 06:08:49;;;;;;;16.00;9.20;;;;;;;11.11;74.39;100718.90;215809;1274;140887;-72
2022/10/18 06:13:54;;;;;;;12.30;8.60;;;;;;;11.34;74.50;100720.08;215510;1274;141547;-72
2022/10/18 06:18:59;;;;;;;18.40;9.40;;;;;;;11.54;74.59;100723.89;215357;1272;142025;-72
2022/10/18 06:24:02;;;;;;;13.10;9.40;;;;;;;11.79;74.92;100727.45;215728;1273;141317;-70
2022/10/18 06:29:06;;;;;;;9.20;8.10;;;;;;;12.04;74.63;100725.50;215134;1273;144168;-72
2022/10/18 06:34:09;;;;;;;10.80;8.10;;;;;;;12.23;74.68;100728.73;216193;1274;140965;-73
2022/10/18 06:39:14;;;;;;;11.50;8.40;;;;;;;12.45;74.45;100729.32;216043;1273;141878;-74
2022/10/18 06:44:21;;;;;;;9.10;8.20;;;;;;;12.72;74.80;100730.16;215885;1274;152854;-74
2022/10/18 06:49:26;;;;;;;8.70;6.80;;;;;;;12.95;74.25;100726.77;215959;1273;140845;-74
2022/10/18 06:54:29;;;;;;;10.90;7.10;;;;;;;13.25;74.11;100725.40;216115;1274;139543;-73
2022/10/18 06:59:34;;;;;;;7.70;6.60;;;;;;;13.58;73.80;100714.43;215808;1272;141125;-73
2022/10/18 07:04:38;;;;;;;8.20;7.30;;;;;;;13.94;73.34;100709.75;215863;1274;141094;-74
2022/10/18 07:09:44;;;;;;;7.60;6.30;;;;;;;14.44;73.02;100719.45;216013;1274;139208;-73
2022/10/18 07:14:50;;;;;;;9.90;6.90;;;;;;;14.78;72.29;100725.49;215967;1274;140262;-73
2022/10/18 07:19:55;;;;;;;17.20;6.60;;;;;;;14.96;71.42;100721.93;215716;1272;141571;-73
2022/10/18 07:25:00;;;;;;;7.80;5.90;;;;;;;15.02;71.10;100727.66;216056;1273;140960;-73
2022/10/18 07:30:06;;;;;;;15.90;6.10;;;;;;;15.09;70.68;100722.70;215797;1274;141023;-73
2022/10/18 07:35:11;;;;;;;9.60;6.00;;;;;;;15.05;70.28;100712.91;215674;1274;141851;-74
2022/10/18 07:40:19;;;;;;;8.60;7.40;;;;;;;15.08;70.10;100711.95;215116;1274;141343;-74
2022/10/18 07:45:23;;;;;;;9.20;6.90;;;;;;;15.16;69.91;100710.11;215906;1274;140872;-71
2022/10/18 07:50:28;;;;;;;8.20;6.50;;;;;;;15.24;69.87;100711.54;215705;1274;140202;-71
2022/10/18 07:55:32;;;;;;;7.10;6.10;;;;;;;15.42;69.64;100700.61;215880;1274;140400;-70
2022/10/18 08:00:36;;;;;;;11.00;7.80;;;;;;;15.68;69.62;100699.14;215334;1274;140960;-72
2022/10/18 08:05:40;;;;;;;10.10;8.50;;;;;;;15.99;69.47;100695.10;214761;1273;140942;-69
2022/10/18 08:10:44;;;;;;;7.00;5.90;;;;;;;16.21;69.20;100696.81;214493;1274;142572;-70
2022/10/18 08:15:58;;;;;;;10.40;7.50;;;;;;;16.56;68.96;100700.92;216094;1272;141950;-71
2022/10/18 08:21:04;;;;;;;11.80;7.90;;;;;;;16.98;68.87;100701.59;215919;1273;141813;-72
2022/10/18 08:26:13;;;;;;;12.40;8.40;;;;;;;17.31;68.38;100697.52;215957;1274;143038;-71
2022/10/18 08:31:18;;;;;;;10.20;8.80;;;;;;;17.37;67.48;100695.25;216081;1274;139945;-71
2022/10/18 08:36:23;;;;;;;14.40;8.10;;;;;;;17.26;67.05;100694.11;216045;1273;140514;-72
2022/10/18 08:41:36;;;;;;;10.10;8.60;;;;;;;17.28;67.00;100685.62;216021;1273;140532;-69
2022/10/18 08:46:45;;;;;;;12.90;8.10;;;;;;;17.41;67.04;100690.15;215927;1274;141344;-69
2022/10/18 08:51:51;;;;;;;13.50;9.80;;;;;;;17.63;67.02;100688.25;215916;1274;140463;-69
2022/10/18 08:57:00;;;;;;;11.20;8.40;;;;;;;17.88;66.93;100680.94;215833;1273;141265;-71
2022/10/18 09:02:11;;;;;;;13.10;9.60;;;;;;;18.12;66.25;100680.39;215882;1274;140999;-69
2022/10/18 09:07:59;;;;;;;13.10;9.50;;;;;;;18.34;66.11;100677.15;216118;1274;140685;-71
2022/10/18 09:13:45;;;;;;;11.70;9.30;;;;;;;18.47;65.73;100673.64;215842;1274;140084;-72
2022/10/18 09:19:07;;;;;;;12.60;10.50;;;;;;;18.67;65.70;100663.86;215115;1274;140157;-70
2022/10/18 09:24:14;;;;;;;14.70;10.80;;;;;;;18.95;65.43;100661.34;215983;1274;140353;-70
2022/10/18 09:29:46;;;;;;;15.70;12.10;;;;;;;19.18;65.47;100655.85;214975;1274;140521;-75
2022/10/18 09:34:54;;;;;;;14.20;11.10;;;;;;;19.51;64.92;100653.45;214000;1273;139970;-70
2022/10/18 09:40:13;;;;;;;16.60;11.80;;;;;;;19.56;64.62;100649.61;215895;1274;139465;-69
2022/10/18 09:45:33;;;;;;;14.80;11.10;;;;;;;19.46;64.18;100641.49;215856;1274;140853;-70
2022/10/18 09:50:44;;;;;;;17.20;12.70;;;;;;;19.38;64.25;100631.09;215557;1273;141364;-71
2022/10/18 09:56:00;;;;;;;18.70;13.20;;;;;;;19.68;64.36;100627.96;215325;1274;140780;-70
2022/10/18 10:01:06;;;;;;;22.10;13.00;;;;;;;19.97;63.85;100620.58;215234;1274;141192;-68
2022/10/18 10:06:10;;;;;;;13.50;12.20;;;;;;;20.19;63.56;100621.60;215355;1274;142568;-70
2022/10/18 10:11:33;;;;;;;15.00;13.20;;;;;;;20.60;63.49;100620.07;216028;1274;141493;-70
2022/10/18 10:16:50;;;;;;;13.60;10.90;;;;;;;20.94;62.93;100615.84;214004;1274;141507;-71
2022/10/18 10:21:58;;;;;;;21.40;14.20;;;;;;;20.68;62.17;100601.48;216000;1272;140646;-73
2022/10/18 10:27:05;;;;;;;19.80;12.80;;;;;;;20.47;62.31;100597.17;215990;1274;140459;-74
2022/10/18 10:32:12;;;;;;;14.40;12.70;;;;;;;20.34;62.18;100591.52;214997;1274;140293;-71
2022/10/18 10:37:21;;;;;;;20.30;14.20;;;;;;;20.50;62.61;100586.37;215826;1274;141737;-71
2022/10/18 10:42:25;;;;;;;18.60;13.00;;;;;;;20.55;62.31;100582.02;216176;1273;142114;-75
2022/10/18 10:47:33;;;;;;;16.00;13.50;;;;;;;20.48;62.08;100578.31;215801;1274;141158;-75
2022/10/18 10:52:38;;;;;;;14.50;12.70;;;;;;;20.59;62.15;100571.85;215985;1274;140014;-70
2022/10/18 10:57:46;;;;;;;12.80;11.50;;;;;;;20.69;62.11;100556.36;215977;1274;140897;-72
2022/10/18 11:03:12;;;;;;;23.40;13.10;;;;;;;20.82;61.84;100551.92;215901;1274;141097;-73
2022/10/18 11:08:37;;;;;;;14.20;12.10;;;;;;;20.91;61.51;100537.98;215805;1272;141595;-71
2022/10/18 11:13:48;;;;;;;17.60;14.50;;;;;;;20.93;61.22;100533.23;215850;1273;142052;-68
2022/10/18 11:19:38;;;;;;;17.60;13.00;;;;;;;21.07;61.25;100520.92;216013;1274;140175;-70
2022/10/18 11:24:42;;;;;;;14.00;12.50;;;;;;;21.14;61.03;100511.84;216257;1274;142178;-73
2022/10/18 11:30:27;;;;;;;20.00;15.70;;;;;;;21.23;61.05;100503.02;216082;1274;140337;-73
2022/10/18 11:35:56;;;;;;;17.20;15.60;;;;;;;21.14;60.73;100485.89;215145;1273;141463;-73
2022/10/18 11:41:21;;;;;;;15.70;14.10;;;;;;;20.97;60.89;100477.05;216057;1273;142006;-74
2022/10/18 11:46:45;;;;;;;19.40;16.40;;;;;;;20.80;61.06;100470.59;214447;1274;141624;-71
2022/10/18 11:52:05;;;;;;;23.60;14.80;;;;;;;20.84;61.40;100460.69;213500;1272;143521;-73
2022/10/18 11:57:30;;;;;;;17.40;15.00;;;;;;;20.95;61.39;100458.69;215586;1273;140579;-76
2022/10/18 12:02:40;;;;;;;17.60;12.90;;;;;;;21.16;61.36;100445.14;215785;1273;147681;-77
2022/10/18 12:07:50;;;;;;;16.70;14.80;;;;;;;21.37;61.35;100441.79;215828;1274;140292;-77
2022/10/18 12:13:00;;;;;;;29.90;16.90;;;;;;;21.39;61.04;100444.80;215328;1274;140438;-75
2022/10/18 12:18:13;;;;;;;18.10;15.90;;;;;;;21.31;60.86;100440.78;215941;1274;141964;-75
2022/10/18 12:23:59;;;;;;;22.30;16.20;;;;;;;21.25;60.83;100432.23;213946;1274;142217;-71
2022/10/18 12:29:32;;;;;;;17.10;15.40;;;;;;;21.16;61.00;100422.04;215969;1274;140113;-78
2022/10/18 12:34:43;;;;;;;20.00;15.20;;;;;;;20.98;60.82;100409.01;215175;1274;140841;-77
2022/10/18 12:40:30;;;;;;;16.60;13.40;;;;;;;20.78;60.93;100407.59;216030;1274;141126;-80
2022/10/18 12:45:48;;;;;;;18.50;15.40;;;;;;;20.53;61.25;100396.48;215586;1274;140454;-74
2022/10/18 12:51:16;;;;;;;17.90;15.30;;;;;;;20.61;61.62;100377.36;215735;1274;140914;-75
2022/10/18 12:56:26;;;;;;;15.00;13.50;;;;;;;20.76;61.59;100373.95;215924;1274;141785;-78
2022/10/18 13:01:50;;;;;;;18.30;14.30;;;;;;;20.90;61.42;100360.52;215968;1274;139669;-73
2022/10/18 13:07:04;;;;;;;;;;;;;;;21.03;61.38;100355.89;215871;1273;141320;-77
2022/10/18 13:12:08;;;;;;;15.60;12.40;;;;;;;20.94;61.28;100355.33;216671;1274;127265;-75
2022/10/18 13:17:13;;;;;;;19.30;13.70;;;;;;;20.82;61.31;100356.59;215958;1273;141020;-73
2022/10/18 13:23:03;;;;;;;15.80;14.20;;;;;;;20.82;61.45;100349.55;216037;1274;140322;-71
2022/10/18 13:28:15;;;;;;;18.90;14.50;;;;;;;20.71;61.32;100340.48;215309;1274;140456;-76
2022/10/18 13:33:34;;;;;;;19.20;14.80;;;;;;;20.54;61.68;100345.17;216120;1274;141829;-75
2022/10/18 13:38:56;;;;;;;19.30;16.00;;;;;;;20.43;61.96;100341.28;215924;1274;140930;-74
2022/10/18 13:44:02;;;;;;;22.40;15.10;;;;;;;20.36;62.17;100326.49;216003;1272;140595;-74
2022/10/18 13:49:43;;;;;;;17.50;15.10;;;;;;;20.29;62.22;100305.05;215346;1274;142216;-71
2022/10/18 13:55:48;;;;;;;20.10;15.60;;;;;;;20.15;62.46;100286.77;215783;1274;140775;-71
2022/10/18 14:01:11;;;;;;;21.60;15.80;;;;;;;19.95;62.78;100281.14;214441;1274;139971;-69
2022/10/18 14:06:23;;;;;;;20.90;15.10;;;;;;;19.83;63.03;100280.11;215929;1274;140489;-73
2022/10/18 14:11:48;;;;;;;19.20;14.80;;;;;;;19.72;63.45;100274.19;214698;1273;140654;-69
2022/10/18 14:16:57;;;;;;;18.50;14.60;;;;;;;19.66;63.94;100269.30;215351;1274;139930;-77
2022/10/18 14:22:17;;;;;;;17.30;15.10;;;;;;;19.59;64.40;100272.11;215861;1273;142684;-80
2022/10/18 14:27:26;;;;;;;17.30;14.80;;;;;;;19.49;64.81;100278.23;213906;1274;140064;-81
2022/10/18 14:32:31;;;;;;;26.50;17.00;;;;;;;19.38;65.35;100271.25;215266;1274;140279;-78
2022/10/18 14:37:35;;;;;;;22.20;16.70;;;;;;;19.24;66.11;100271.17;215909;1273;141065;-74
2022/10/18 14:42:47;;;;;;;22.50;15.10;;;;;;;19.11;66.64;100273.19;215888;1273;140411;-73
2022/10/18 14:47:51;;;;;;;23.10;17.20;;;;;;;19.00;67.04;100280.70;215941;1274;141866;-79
2022/10/18 14:52:54;;;;;;;27.80;18.80;;;;;;;18.88;67.77;100288.64;215963;1273;142528;-71
2022/10/18 14:57:58;;;;;;;22.40;18.60;;;;;;;18.75;68.04;100302.17;215685;1274;140312;-76
2022/10/18 15:03:09;;;;;;;24.60;20.30;;;;;;;18.63;68.35;100316.95;215903;1274;141202;-76
2022/10/18 15:08:13;;;;;;;24.60;20.40;;;;;;;18.44;68.61;100331.16;215890;1274;141339;-78
2022/10/18 15:13:16;;;;;;;17.80;15.90;;;;;;;18.10;68.94;100337.51;215930;1274;141686;-78
2022/10/18 15:18:23;;;;;;;9.50;8.50;;;;;;;17.73;69.39;100349.48;215874;1274;140955;-76
2022/10/18 15:23:31;;;;;;;4.10;3.70;;;;;;;17.31;69.35;100374.33;215969;1274;140961;-76
2022/10/18 15:28:50;;;;;;;5.30;3.70;;;;;;;16.85;69.97;100374.28;215858;1273;141849;-79
2022/10/18 15:34:13;;;;;;;2.20;1.90;;;;;;;16.48;70.70;100378.73;214957;1274;140766;-82
2022/10/18 15:39:25;;;;;;;1.40;1.30;;;;;;;16.17;71.11;100384.95;216231;1271;141674;-80
2022/10/18 15:44:33;;;;;;;3.20;1.40;;;;;;;15.95;71.49;100401.34;215502;1273;141083;-77
2022/10/18 15:49:50;;;;;;;2.70;1.70;;;;;;;15.77;71.77;100395.86;216162;1274;139493;-78
2022/10/18 15:54:56;;;;;;;3.40;1.80;;;;;;;15.62;72.29;100400.23;216003;1273;140852;-78
2022/10/18 16:00:06;;;;;;;1.60;1.50;;;;;;;15.53;72.85;100418.52;215978;1273;140925;-81
2022/10/18 16:05:15;;;;;;;2.00;1.80;;;;;;;15.39;73.05;100411.01;215632;1273;141886;-83
2022/10/18 16:10:21;;;;;;;3.00;1.40;;;;;;;15.20;73.33;100414.16;215208;1274;139628;-76
2022/10/18 16:15:26;;;;;;;2.60;1.90;;;;;;;15.03;73.76;100426.77;216119;1272;140789;-78
2022/10/18 16:20:30;;;;;;;3.60;2.30;;;;;;;14.87;73.98;100441.78;215525;1273;141286;-82
2022/10/18 16:25:37;;;;;;;2.20;1.50;;;;;;;14.75;74.13;100456.93;213125;1274;143863;-75
2022/10/18 16:30:46;;;;;;;2.40;1.40;;;;;;;14.58;74.33;100462.99;214563;1273;141636;-72
2022/10/18 16:35:53;;;;;;;3.20;2.80;;;;;;;14.42;75.12;100470.96;215933;1274;140897;-74
2022/10/18 16:40:57;;;;;;;4.30;3.10;;;;;;;14.40;75.43;100472.53;215099;1274;141539;-79
2022/10/18 16:46:02;;;;;;;4.20;3.20;;;;;;;14.37;75.77;100478.27;215770;1273;142261;-74
2022/10/18 16:51:06;;;;;;;5.60;3.50;;;;;;;14.40;75.96;100484.08;215565;1273;144013;-75
2022/10/18 16:56:30;;;;;;;5.10;3.90;;;;;;;14.44;76.17;100487.44;215891;1274;140569;-71
2022/10/18 17:01:37;;;;;;;3.20;2.80;;;;;;;14.50;76.32;100476.65;215887;1274;139974;-82
2022/10/18 17:06:43;;;;;;;4.40;3.40;;;;;;;14.57;76.53;100468.36;215784;1274;141708;-73
2022/10/18 17:11:51;;;;;;;5.10;3.70;;;;;;;14.67;76.53;100465.52;215961;1274;140490;-76
2022/10/18 17:16:55;;;;;;;3.80;2.60;;;;;;;14.74;76.69;100480.73;215937;1274;141117;-73
2022/10/18 17:21:59;;;;;;;3.70;3.40;;;;;;;14.73;76.40;100480.63;215812;1274;140408;-72
2022/10/18 17:27:05;;;;;;;3.80;3.50;;;;;;;14.71;76.46;100482.58;215989;1273;140682;-71
2022/10/18 17:32:10;;;;;;;4.60;4.10;;;;;;;14.70;76.54;100480.63;215810;1274;141675;-72
2022/10/18 17:37:14;;;;;;;4.20;3.60;;;;;;;14.70;76.57;100482.88;215963;1273;140216;-71
2022/10/18 17:42:20;;;;;;;7.30;3.80;;;;;;;14.69;76.62;100485.33;216016;1273;141275;-72
2022/10/18 17:47:27;;;;;;;4.10;3.20;;;;;;;14.71;76.67;100482.41;215373;1273;961610;-70
2022/10/18 17:52:44;;;;;;;6.90;3.20;;;;;;;14.72;76.63;100490.37;215236;1273;140688;-71
2022/10/18 17:57:53;;;;;;;7.50;3.80;;;;;;;14.68;76.76;100505.71;215795;1273;140178;-72
2022/10/18 18:02:59;;;;;;;4.60;3.80;;;;;;;14.66;76.90;100513.20;216069;1274;140469;-72
2022/10/18 18:08:03;;;;;;;3.80;3.20;;;;;;;14.64;76.86;100522.78;215481;1272;140762;-68
2022/10/18 18:13:08;;;;;;;4.30;2.50;;;;;;;14.58;76.69;100514.89;216096;1274;143225;-72
2022/10/18 18:18:12;;;;;;;2.90;2.60;;;;;;;14.54;76.96;100514.55;216161;1273;140985;-72
2022/10/18 18:23:17;;;;;;;3.40;2.20;;;;;;;14.54;77.10;100529.04;216114;1273;140913;-72
2022/10/18 18:28:21;;;;;;;3.90;3.50;;;;;;;14.45;77.01;100532.10;215792;1274;140136;-72
2022/10/18 18:33:26;;;;;;;5.20;4.70;;;;;;;14.39;77.21;100527.89;216127;1271;140170;-69
2022/10/18 18:38:31;;;;;;;5.60;3.80;;;;;;;14.33;77.27;100516.73;216207;1273;142100;-72
2022/10/18 18:43:40;;;;;;;8.50;5.10;;;;;;;14.27;77.47;100518.76;216014;1273;142464;-71
2022/10/18 18:48:45;;;;;;;5.20;4.20;;;;;;;14.25;77.58;100520.65;215907;1272;142269;-71
2022/10/18 18:53:50;;;;;;;5.70;5.10;;;;;;;14.26;77.68;100526.83;215903;1274;141447;-71
2022/10/18 18:58:58;;;;;;;6.50;4.10;;;;;;;14.24;77.72;100529.58;215806;1271;141600;-72
2022/10/18 19:04:08;;;;;;;5.60;4.20;;;;;;;14.24;78.15;100526.31;216206;1271;143517;-72
2022/10/18 19:09:18;;;;;;;7.40;5.70;;;;;;;14.23;78.05;100522.80;216031;1272;142014;-72
2022/10/18 19:14:23;;;;;;;8.30;4.30;;;;;;;14.21;77.96;100515.05;215963;1272;141396;-72
2022/10/18 19:19:29;;;;;;;8.40;4.60;;;;;;;14.21;78.12;100508.93;216111;1271;141125;-72
2022/10/18 19:24:33;;;;;;;7.70;4.50;;;;;;;14.22;78.18;100516.34;215889;1271;141813;-71
2022/10/18 19:29:38;;;;;;;4.20;3.60;;;;;;;14.23;78.26;100516.91;215730;1274;161835;-72
2022/10/18 19:34:44;;;;;;;6.50;5.40;;;;;;;14.22;78.25;100523.00;216041;1272;140780;-71
2022/10/18 19:39:48;;;;;;;7.50;4.70;;;;;;;14.20;78.12;100521.99;216021;1271;142366;-72
2022/10/18 19:44:52;;;;;;;5.80;3.90;;;;;;;14.19;78.44;100521.11;216033;1272;142563;-70
2022/10/18 19:49:58;;;;;;;3.90;3.50;;;;;;;14.18;78.21;100522.12;215755;1274;141172;-72
2022/10/18 19:55:02;;;;;;;5.00;4.00;;;;;;;14.10;78.05;100522.08;216144;1271;140086;-71
2022/10/18 20:00:06;;;;;;;4.80;3.70;;;;;;;14.01;78.21;100519.39;214326;1272;140242;-73
2022/10/18 20:05:17;;;;;;;3.70;3.20;;;;;;;13.86;77.92;100510.66;215993;1272;143062;-72
2022/10/18 20:10:21;;;;;;;7.60;4.50;;;;;;;13.72;77.73;100509.14;215916;1272;141212;-71
2022/10/18 20:15:26;;;;;;;6.60;4.30;;;;;;;13.58;77.74;100504.83;214691;1273;140835;-72
2022/10/18 20:20:34;;;;;;;5.60;5.20;;;;;;;13.44;77.83;100505.88;216173;1274;142248;-75
2022/10/18 20:25:37;;;;;;;6.10;5.50;;;;;;;13.36;78.50;100513.25;215611;1273;141564;-73
2022/10/18 20:30:41;;;;;;;7.70;5.90;;;;;;;13.35;78.44;100523.56;215317;1273;144024;-72
2022/10/18 20:35:44;;;;;;;9.60;5.50;;;;;;;13.38;78.88;100522.23;215369;1273;141623;-72
2022/10/18 20:40:53;;;;;;;7.10;6.10;;;;;;;13.39;78.77;100519.65;216083;1271;140857;-70
2022/10/18 20:45:58;;;;;;;10.50;6.10;;;;;;;13.42;79.37;100529.17;212835;1273;143117;-74
2022/10/18 20:51:11;;;;;;;11.20;6.80;;;;;;;13.42;79.64;100533.52;216004;1271;141770;-74
2022/10/18 20:56:21;;;;;;;11.70;7.90;;;;;;;13.41;79.54;100538.11;216031;1273;162160;-72
2022/10/18 21:01:28;;;;;;;12.60;10.40;;;;;;;13.43;79.90;100536.44;214230;1273;141512;-73
2022/10/18 21:06:39;;;;;;;11.70;9.70;;;;;;;13.47;80.10;100537.79;215938;1273;141197;-72
2022/10/18 21:11:49;;;;;;;10.00;9.00;;;;;;;13.46;80.09;100535.09;215944;1272;139849;-72
2022/10/18 21:16:54;;;;;;;14.00;10.00;;;;;;;13.40;80.26;100532.58;216107;1272;140701;-72
2022/10/18 21:22:02;;;;;;;11.90;10.00;;;;;;;13.39;80.24;100529.06;215903;1273;140826;-71
2022/10/18 21:27:06;;;;;;;16.10;9.60;;;;;;;13.40;80.56;100526.36;216062;1271;141693;-71
2022/10/18 21:32:13;;;;;;;15.90;10.40;;;;;;;13.46;80.71;100524.98;216200;1272;140038;-71
2022/10/18 21:37:18;;;;;;;13.70;10.00;;;;;;;13.47;80.67;100529.50;216127;1272;141112;-72
2022/10/18 21:42:25;;;;;;;12.60;9.80;;;;;;;13.48;80.77;100522.77;216210;1274;143060;-72
2022/10/18 21:47:29;;;;;;;11.30;9.70;;;;;;;13.54;80.74;100522.90;216173;1272;142384;-71
2022/10/18 21:52:33;;;;;;;19.50;9.40;;;;;;;13.55;80.65;100526.52;216107;1273;141429;-71
2022/10/18 21:57:38;;;;;;;9.40;8.20;;;;;;;13.56;80.59;100532.31;215071;1274;140954;-71
2022/10/18 22:02:44;;;;;;;12.10;10.00;;;;;;;13.48;80.25;100531.06;216180;1271;140320;-71
2022/10/18 22:07:49;;;;;;;9.80;8.70;;;;;;;13.39;80.43;100526.05;216093;1272;140867;-71
2022/10/18 22:12:54;;;;;;;13.70;9.90;;;;;;;13.35;80.62;100519.70;215870;1272;141548;-71
2022/10/18 22:17:58;;;;;;;18.20;11.30;;;;;;;13.32;80.46;100511.66;213973;1272;140677;-73
2022/10/18 22:23:02;;;;;;;11.70;8.60;;;;;;;13.23;80.19;100510.91;214244;1272;141805;-70
2022/10/18 22:28:06;;;;;;;12.40;9.60;;;;;;;13.10;80.16;100510.38;216112;1273;141436;-73
2022/10/18 22:33:10;;;;;;;12.40;10.00;;;;;;;13.01;80.33;100512.88;213741;1273;140627;-72
2022/10/18 22:38:14;;;;;;;27.90;11.70;;;;;;;12.90;80.11;100515.77;216087;1271;141197;-72
2022/10/18 22:43:18;;;;;;;11.30;9.70;;;;;;;12.79;80.17;100519.59;216049;1271;141404;-72
2022/10/18 22:48:22;;;;;;;12.10;10.50;;;;;;;12.75;80.12;100513.60;215976;1272;141059;-72
2022/10/18 22:53:26;;;;;;;10.80;9.70;;;;;;;12.73;80.52;100499.75;216109;1271;141192;-72
2022/10/18 22:58:30;;;;;;;16.30;11.40;;;;;;;12.74;80.46;100496.08;215709;1271;140530;-71
2022/10/18 23:03:34;;;;;;;18.50;12.10;;;;;;;12.73;80.49;100490.23;216249;1272;140981;-71
2022/10/18 23:08:38;;;;;;;12.80;10.70;;;;;;;12.71;80.50;100490.31;215604;1273;141562;-72
2022/10/18 23:13:44;;;;;;;11.30;10.20;;;;;;;12.64;80.44;100494.00;216143;1272;140558;-73